sensor_id;sensor_type;location;lat;lon;timestamp;P1;durP1;ratioP1;P2;durP2;ratioP2
7517;SDS011;3800;48.922;9.444;2023-03-04T00:00:09;45.03;;;29.73;;
7517;SDS011;3800;48.922;9.444;2023-03-04T00:02:37;43.43;;;28.83;;
7517;SDS011;3800;48.922;9.444;2023-03-04T00:05:05;41.20;;;28.93;;
7517;SDS011;3800;48.922;9.444;2023-03-04T00:07:33;44.40;;;29.30;;
7517;SDS011;3800;48.922;9.444;2023-03-04T00:10:01;43.83;;;29.20;;
7517;SDS011;3800;48.922;9.444;2023-03-04T00:12:28;42.27;;;29.83;;
7517;SDS011;3800;48.922;9.444;2023-03-04T00:14:57;40.77;;;26.83;;
7517;SDS011;3800;48.922;9.444;2023-03-04T00:17:24;34.47;;;25.67;;
7517;SDS011;3800;48.922;9.444;2023-03-04T00:19:52;35.23;;;24.77;;
7517;SDS011;3800;48.922;9.444;2023-03-04T00:22:19;35.77;;;24.77;;
7517;SDS011;3800;48.922;9.444;2023-03-04T00:24:47;36.10;;;26.93;;
7517;SDS011;3800;48.922;9.444;2023-03-04T00:27:15;41.43;;;27.10;;
7517;SDS011;3800;48.922;9.444;2023-03-04T00:29:43;45.57;;;27.43;;
7517;SDS011;3800;48.922;9.444;2023-03-04T00:32:11;40.47;;;27.03;;
7517;SDS011;3800;48.922;9.444;2023-03-04T00:34:38;44.37;;;28.77;;
7517;SDS011;3800;48.922;9.444;2023-03-04T00:37:06;38.63;;;27.23;;
7517;SDS011;3800;48.922;9.444;2023-03-04T00:39:34;45.13;;;28.67;;
7517;SDS011;3800;48.922;9.444;2023-03-04T00:42:01;39.87;;;26.97;;
7517;SDS011;3800;48.922;9.444;2023-03-04T00:44:30;44.30;;;28.67;;
7517;SDS011;3800;48.922;9.444;2023-03-04T00:46:58;40.37;;;26.97;;
7517;SDS011;3800;48.922;9.444;2023-03-04T00:49:25;40.50;;;27.03;;
7517;SDS011;3800;48.922;9.444;2023-03-04T00:51:53;36.67;;;25.57;;
7517;SDS011;3800;48.922;9.444;2023-03-04T00:54:20;40.03;;;26.23;;
7517;SDS011;3800;48.922;9.444;2023-03-04T00:56:48;41.13;;;27.07;;
7517;SDS011;3800;48.922;9.444;2023-03-04T00:59:16;42.20;;;26.80;;
7517;SDS011;3800;48.922;9.444;2023-03-04T01:01:43;37.37;;;26.37;;
7517;SDS011;3800;48.922;9.444;2023-03-04T01:04:11;43.23;;;26.30;;
7517;SDS011;3800;48.922;9.444;2023-03-04T01:06:39;43.00;;;27.03;;
7517;SDS011;3800;48.922;9.444;2023-03-04T01:09:06;36.07;;;25.47;;
7517;SDS011;3800;48.922;9.444;2023-03-04T01:11:34;38.60;;;26.90;;
7517;SDS011;3800;48.922;9.444;2023-03-04T01:14:02;43.17;;;26.77;;
7517;SDS011;3800;48.922;9.444;2023-03-04T01:16:29;38.37;;;26.33;;
7517;SDS011;3800;48.922;9.444;2023-03-04T01:18:57;52.90;;;32.87;;
7517;SDS011;3800;48.922;9.444;2023-03-04T01:21:25;49.23;;;29.70;;
7517;SDS011;3800;48.922;9.444;2023-03-04T01:23:53;43.20;;;27.33;;
7517;SDS011;3800;48.922;9.444;2023-03-04T01:26:21;42.73;;;27.53;;
7517;SDS011;3800;48.922;9.444;2023-03-04T01:28:49;38.87;;;26.37;;
7517;SDS011;3800;48.922;9.444;2023-03-04T01:31:16;36.93;;;26.07;;
7517;SDS011;3800;48.922;9.444;2023-03-04T01:33:44;38.37;;;26.30;;
7517;SDS011;3800;48.922;9.444;2023-03-04T01:36:12;43.17;;;26.13;;
7517;SDS011;3800;48.922;9.444;2023-03-04T01:38:39;42.37;;;27.07;;
7517;SDS011;3800;48.922;9.444;2023-03-04T01:41:08;40.87;;;26.97;;
7517;SDS011;3800;48.922;9.444;2023-03-04T01:43:35;43.30;;;27.93;;
7517;SDS011;3800;48.922;9.444;2023-03-04T01:46:03;40.17;;;27.73;;
7517;SDS011;3800;48.922;9.444;2023-03-04T01:48:32;40.13;;;26.30;;
7517;SDS011;3800;48.922;9.444;2023-03-04T01:50:59;42.23;;;27.47;;
7517;SDS011;3800;48.922;9.444;2023-03-04T01:53:29;39.03;;;26.33;;
7517;SDS011;3800;48.922;9.444;2023-03-04T01:55:59;41.23;;;26.77;;
7517;SDS011;3800;48.922;9.444;2023-03-04T01:58:27;39.43;;;26.20;;
7517;SDS011;3800;48.922;9.444;2023-03-04T02:00:52;43.33;;;25.63;;
7517;SDS011;3800;48.922;9.444;2023-03-04T02:03:20;38.73;;;26.43;;
7517;SDS011;3800;48.922;9.444;2023-03-04T02:05:48;39.20;;;26.37;;
7517;SDS011;3800;48.922;9.444;2023-03-04T02:08:16;39.07;;;26.83;;
7517;SDS011;3800;48.922;9.444;2023-03-04T02:10:43;41.83;;;26.80;;
7517;SDS011;3800;48.922;9.444;2023-03-04T02:13:12;40.47;;;25.97;;
7517;SDS011;3800;48.922;9.444;2023-03-04T02:15:39;43.90;;;25.07;;
7517;SDS011;3800;48.922;9.444;2023-03-04T02:18:16;36.43;;;24.83;;
7517;SDS011;3800;48.922;9.444;2023-03-04T02:23:34;37.80;;;24.43;;
7517;SDS011;3800;48.922;9.444;2023-03-04T02:26:18;36.97;;;24.10;;
7517;SDS011;3800;48.922;9.444;2023-03-04T02:28:47;37.37;;;24.77;;
7517;SDS011;3800;48.922;9.444;2023-03-04T02:31:23;39.03;;;26.33;;
7517;SDS011;3800;48.922;9.444;2023-03-04T02:33:50;41.77;;;26.53;;
7517;SDS011;3800;48.922;9.444;2023-03-04T02:36:18;35.07;;;24.60;;
7517;SDS011;3800;48.922;9.444;2023-03-04T02:38:46;38.27;;;24.83;;
7517;SDS011;3800;48.922;9.444;2023-03-04T02:41:14;34.93;;;24.03;;
7517;SDS011;3800;48.922;9.444;2023-03-04T02:43:42;38.57;;;24.97;;
7517;SDS011;3800;48.922;9.444;2023-03-04T02:46:10;39.00;;;25.20;;
7517;SDS011;3800;48.922;9.444;2023-03-04T02:48:37;38.27;;;25.67;;
7517;SDS011;3800;48.922;9.444;2023-03-04T02:51:04;39.23;;;25.20;;
7517;SDS011;3800;48.922;9.444;2023-03-04T02:53:33;37.43;;;25.10;;
7517;SDS011;3800;48.922;9.444;2023-03-04T02:56:00;39.57;;;25.80;;
7517;SDS011;3800;48.922;9.444;2023-03-04T02:58:28;37.00;;;24.07;;
7517;SDS011;3800;48.922;9.444;2023-03-04T03:00:55;31.47;;;22.93;;
7517;SDS011;3800;48.922;9.444;2023-03-04T03:03:23;34.80;;;23.27;;
7517;SDS011;3800;48.922;9.444;2023-03-04T03:05:52;33.77;;;23.70;;
7517;SDS011;3800;48.922;9.444;2023-03-04T03:08:18;39.87;;;24.87;;
7517;SDS011;3800;48.922;9.444;2023-03-04T03:10:46;32.73;;;22.53;;
7517;SDS011;3800;48.922;9.444;2023-03-04T03:13:14;33.90;;;23.97;;
7517;SDS011;3800;48.922;9.444;2023-03-04T03:15:41;37.77;;;23.70;;
7517;SDS011;3800;48.922;9.444;2023-03-04T03:18:09;35.60;;;24.23;;
7517;SDS011;3800;48.922;9.444;2023-03-04T03:20:37;38.13;;;24.53;;
7517;SDS011;3800;48.922;9.444;2023-03-04T03:23:05;38.93;;;24.60;;
7517;SDS011;3800;48.922;9.444;2023-03-04T03:25:33;39.30;;;25.43;;
7517;SDS011;3800;48.922;9.444;2023-03-04T03:28:00;38.73;;;24.67;;
7517;SDS011;3800;48.922;9.444;2023-03-04T03:30:28;34.40;;;23.50;;
7517;SDS011;3800;48.922;9.444;2023-03-04T03:32:55;37.33;;;24.00;;
7517;SDS011;3800;48.922;9.444;2023-03-04T03:35:23;36.70;;;24.00;;
7517;SDS011;3800;48.922;9.444;2023-03-04T03:37:51;33.50;;;23.93;;
7517;SDS011;3800;48.922;9.444;2023-03-04T03:40:18;31.73;;;22.70;;
7517;SDS011;3800;48.922;9.444;2023-03-04T03:42:46;39.23;;;24.73;;
7517;SDS011;3800;48.922;9.444;2023-03-04T03:45:14;35.33;;;24.40;;
7517;SDS011;3800;48.922;9.444;2023-03-04T03:47:41;36.60;;;24.40;;
7517;SDS011;3800;48.922;9.444;2023-03-04T03:50:09;36.63;;;24.33;;
7517;SDS011;3800;48.922;9.444;2023-03-04T03:52:37;35.97;;;23.33;;
7517;SDS011;3800;48.922;9.444;2023-03-04T03:55:05;40.17;;;26.17;;
7517;SDS011;3800;48.922;9.444;2023-03-04T03:57:32;38.73;;;26.23;;
7517;SDS011;3800;48.922;9.444;2023-03-04T04:00:03;41.77;;;27.57;;
7517;SDS011;3800;48.922;9.444;2023-03-04T04:02:30;43.23;;;25.40;;
7517;SDS011;3800;48.922;9.444;2023-03-04T04:04:57;37.10;;;25.07;;
7517;SDS011;3800;48.922;9.444;2023-03-04T04:07:25;37.63;;;25.37;;
7517;SDS011;3800;48.922;9.444;2023-03-04T04:09:53;37.33;;;25.77;;
7517;SDS011;3800;48.922;9.444;2023-03-04T04:12:20;41.43;;;25.53;;
7517;SDS011;3800;48.922;9.444;2023-03-04T04:14:49;36.53;;;24.60;;
7517;SDS011;3800;48.922;9.444;2023-03-04T04:17:16;34.93;;;25.23;;
7517;SDS011;3800;48.922;9.444;2023-03-04T04:19:45;39.00;;;25.97;;
7517;SDS011;3800;48.922;9.444;2023-03-04T04:22:14;37.33;;;25.63;;
7517;SDS011;3800;48.922;9.444;2023-03-04T04:24:40;36.07;;;24.53;;
7517;SDS011;3800;48.922;9.444;2023-03-04T04:27:08;36.33;;;24.10;;
7517;SDS011;3800;48.922;9.444;2023-03-04T04:29:35;34.83;;;23.63;;
7517;SDS011;3800;48.922;9.444;2023-03-04T04:32:04;32.87;;;23.77;;
7517;SDS011;3800;48.922;9.444;2023-03-04T04:34:31;35.37;;;25.33;;
7517;SDS011;3800;48.922;9.444;2023-03-04T04:36:59;41.03;;;25.57;;
7517;SDS011;3800;48.922;9.444;2023-03-04T04:39:27;37.43;;;24.80;;
7517;SDS011;3800;48.922;9.444;2023-03-04T04:41:54;38.33;;;25.07;;
7517;SDS011;3800;48.922;9.444;2023-03-04T04:44:22;40.17;;;26.57;;
7517;SDS011;3800;48.922;9.444;2023-03-04T04:46:50;39.93;;;27.03;;
7517;SDS011;3800;48.922;9.444;2023-03-04T04:49:18;37.80;;;25.17;;
7517;SDS011;3800;48.922;9.444;2023-03-04T04:51:46;37.93;;;24.93;;
7517;SDS011;3800;48.922;9.444;2023-03-04T04:54:14;38.63;;;26.80;;
7517;SDS011;3800;48.922;9.444;2023-03-04T04:56:42;38.73;;;26.73;;
7517;SDS011;3800;48.922;9.444;2023-03-04T04:59:09;40.30;;;26.73;;
7517;SDS011;3800;48.922;9.444;2023-03-04T05:01:38;42.60;;;27.13;;
7517;SDS011;3800;48.922;9.444;2023-03-04T05:04:05;43.97;;;26.27;;
7517;SDS011;3800;48.922;9.444;2023-03-04T05:06:34;38.27;;;26.30;;
7517;SDS011;3800;48.922;9.444;2023-03-04T05:09:02;39.57;;;26.10;;
7517;SDS011;3800;48.922;9.444;2023-03-04T05:11:29;38.33;;;25.30;;
7517;SDS011;3800;48.922;9.444;2023-03-04T05:13:58;37.80;;;24.83;;
7517;SDS011;3800;48.922;9.444;2023-03-04T05:16:25;43.50;;;25.60;;
7517;SDS011;3800;48.922;9.444;2023-03-04T05:18:53;36.57;;;24.00;;
7517;SDS011;3800;48.922;9.444;2023-03-04T05:21:21;36.10;;;24.93;;
7517;SDS011;3800;48.922;9.444;2023-03-04T05:23:48;43.60;;;26.60;;
7517;SDS011;3800;48.922;9.444;2023-03-04T05:26:17;38.13;;;24.63;;
7517;SDS011;3800;48.922;9.444;2023-03-04T05:28:44;36.00;;;24.77;;
7517;SDS011;3800;48.922;9.444;2023-03-04T05:31:12;38.27;;;25.40;;
7517;SDS011;3800;48.922;9.444;2023-03-04T05:33:39;40.33;;;24.30;;
7517;SDS011;3800;48.922;9.444;2023-03-04T05:36:07;37.70;;;24.57;;
7517;SDS011;3800;48.922;9.444;2023-03-04T05:38:35;36.57;;;23.83;;
7517;SDS011;3800;48.922;9.444;2023-03-04T05:41:03;37.83;;;24.90;;
7517;SDS011;3800;48.922;9.444;2023-03-04T05:43:31;35.80;;;24.77;;
7517;SDS011;3800;48.922;9.444;2023-03-04T05:45:59;38.00;;;24.67;;
7517;SDS011;3800;48.922;9.444;2023-03-04T05:48:27;35.97;;;24.30;;
7517;SDS011;3800;48.922;9.444;2023-03-04T05:50:56;35.03;;;23.80;;
7517;SDS011;3800;48.922;9.444;2023-03-04T05:53:23;34.40;;;23.13;;
7517;SDS011;3800;48.922;9.444;2023-03-04T05:55:50;38.53;;;24.90;;
7517;SDS011;3800;48.922;9.444;2023-03-04T05:58:18;34.27;;;23.13;;
7517;SDS011;3800;48.922;9.444;2023-03-04T06:00:46;36.03;;;24.23;;
7517;SDS011;3800;48.922;9.444;2023-03-04T06:03:16;37.50;;;24.90;;
7517;SDS011;3800;48.922;9.444;2023-03-04T06:05:44;39.87;;;25.27;;
7517;SDS011;3800;48.922;9.444;2023-03-04T06:08:12;40.50;;;25.03;;
7517;SDS011;3800;48.922;9.444;2023-03-04T06:10:40;36.50;;;24.13;;
7517;SDS011;3800;48.922;9.444;2023-03-04T06:13:07;39.00;;;25.10;;
7517;SDS011;3800;48.922;9.444;2023-03-04T06:15:35;42.43;;;26.80;;
7517;SDS011;3800;48.922;9.444;2023-03-04T06:18:03;42.80;;;27.63;;
7517;SDS011;3800;48.922;9.444;2023-03-04T06:20:30;41.83;;;27.10;;
7517;SDS011;3800;48.922;9.444;2023-03-04T06:22:59;38.20;;;25.70;;
7517;SDS011;3800;48.922;9.444;2023-03-04T06:25:26;38.40;;;26.53;;
7517;SDS011;3800;48.922;9.444;2023-03-04T06:27:55;41.23;;;24.90;;
7517;SDS011;3800;48.922;9.444;2023-03-04T06:30:22;37.27;;;24.90;;
7517;SDS011;3800;48.922;9.444;2023-03-04T06:32:50;41.47;;;24.93;;
7517;SDS011;3800;48.922;9.444;2023-03-04T06:35:18;38.40;;;25.27;;
7517;SDS011;3800;48.922;9.444;2023-03-04T06:37:45;35.50;;;23.67;;
7517;SDS011;3800;48.922;9.444;2023-03-04T06:40:14;37.23;;;24.03;;
7517;SDS011;3800;48.922;9.444;2023-03-04T06:42:41;39.73;;;24.93;;
7517;SDS011;3800;48.922;9.444;2023-03-04T06:45:10;38.57;;;25.50;;
7517;SDS011;3800;48.922;9.444;2023-03-04T06:47:38;39.53;;;25.50;;
7517;SDS011;3800;48.922;9.444;2023-03-04T06:50:06;41.20;;;24.73;;
7517;SDS011;3800;48.922;9.444;2023-03-04T06:52:34;37.50;;;26.10;;
7517;SDS011;3800;48.922;9.444;2023-03-04T06:55:02;44.83;;;26.57;;
7517;SDS011;3800;48.922;9.444;2023-03-04T06:57:31;41.60;;;26.43;;
7517;SDS011;3800;48.922;9.444;2023-03-04T06:59:59;43.03;;;27.00;;
7517;SDS011;3800;48.922;9.444;2023-03-04T07:02:27;39.37;;;25.50;;
7517;SDS011;3800;48.922;9.444;2023-03-04T07:04:54;40.30;;;25.67;;
7517;SDS011;3800;48.922;9.444;2023-03-04T07:07:22;37.53;;;24.47;;
7517;SDS011;3800;48.922;9.444;2023-03-04T07:09:50;33.43;;;22.50;;
7517;SDS011;3800;48.922;9.444;2023-03-04T07:12:17;36.70;;;24.27;;
7517;SDS011;3800;48.922;9.444;2023-03-04T07:14:46;36.47;;;23.17;;
7517;SDS011;3800;48.922;9.444;2023-03-04T07:17:13;35.23;;;23.23;;
7517;SDS011;3800;48.922;9.444;2023-03-04T07:19:41;38.60;;;23.47;;
7517;SDS011;3800;48.922;9.444;2023-03-04T07:22:10;34.83;;;23.03;;
7517;SDS011;3800;48.922;9.444;2023-03-04T07:24:37;36.17;;;23.83;;
7517;SDS011;3800;48.922;9.444;2023-03-04T07:27:05;45.40;;;24.67;;
7517;SDS011;3800;48.922;9.444;2023-03-04T07:29:33;37.07;;;24.27;;
7517;SDS011;3800;48.922;9.444;2023-03-04T07:32:00;37.40;;;25.50;;
7517;SDS011;3800;48.922;9.444;2023-03-04T07:34:29;41.37;;;25.33;;
7517;SDS011;3800;48.922;9.444;2023-03-04T07:36:56;42.73;;;26.50;;
7517;SDS011;3800;48.922;9.444;2023-03-04T07:39:25;42.80;;;25.47;;
7517;SDS011;3800;48.922;9.444;2023-03-04T07:41:53;40.00;;;26.00;;
7517;SDS011;3800;48.922;9.444;2023-03-04T07:44:21;37.13;;;24.40;;
7517;SDS011;3800;48.922;9.444;2023-03-04T07:46:49;40.87;;;27.33;;
7517;SDS011;3800;48.922;9.444;2023-03-04T07:49:16;35.30;;;24.40;;
7517;SDS011;3800;48.922;9.444;2023-03-04T07:51:44;38.27;;;25.40;;
7517;SDS011;3800;48.922;9.444;2023-03-04T07:54:11;41.27;;;26.10;;
7517;SDS011;3800;48.922;9.444;2023-03-04T07:56:39;41.73;;;25.73;;
7517;SDS011;3800;48.922;9.444;2023-03-04T07:59:07;36.27;;;24.27;;
7517;SDS011;3800;48.922;9.444;2023-03-04T08:01:35;34.33;;;22.87;;
7517;SDS011;3800;48.922;9.444;2023-03-04T08:04:03;32.63;;;20.40;;
7517;SDS011;3800;48.922;9.444;2023-03-04T08:06:31;31.33;;;20.33;;
7517;SDS011;3800;48.922;9.444;2023-03-04T08:08:59;34.67;;;21.20;;
7517;SDS011;3800;48.922;9.444;2023-03-04T08:11:27;30.70;;;20.60;;
7517;SDS011;3800;48.922;9.444;2023-03-04T08:13:54;33.30;;;20.00;;
7517;SDS011;3800;48.922;9.444;2023-03-04T08:16:22;28.87;;;18.77;;
7517;SDS011;3800;48.922;9.444;2023-03-04T08:18:50;28.63;;;19.73;;
7517;SDS011;3800;48.922;9.444;2023-03-04T08:21:18;30.83;;;21.37;;
7517;SDS011;3800;48.922;9.444;2023-03-04T08:23:45;27.60;;;17.90;;
7517;SDS011;3800;48.922;9.444;2023-03-04T08:26:15;26.73;;;17.97;;
7517;SDS011;3800;48.922;9.444;2023-03-04T08:28:43;26.07;;;17.63;;
7517;SDS011;3800;48.922;9.444;2023-03-04T08:31:12;28.77;;;18.13;;
7517;SDS011;3800;48.922;9.444;2023-03-04T08:33:39;27.47;;;18.03;;
7517;SDS011;3800;48.922;9.444;2023-03-04T08:36:07;28.37;;;19.20;;
7517;SDS011;3800;48.922;9.444;2023-03-04T08:38:35;26.20;;;17.53;;
7517;SDS011;3800;48.922;9.444;2023-03-04T08:41:04;29.23;;;18.73;;
7517;SDS011;3800;48.922;9.444;2023-03-04T08:43:31;24.43;;;17.13;;
7517;SDS011;3800;48.922;9.444;2023-03-04T08:45:59;27.60;;;19.17;;
7517;SDS011;3800;48.922;9.444;2023-03-04T08:48:26;25.20;;;16.27;;
7517;SDS011;3800;48.922;9.444;2023-03-04T08:50:55;27.57;;;16.93;;
7517;SDS011;3800;48.922;9.444;2023-03-04T08:53:23;28.77;;;18.30;;
7517;SDS011;3800;48.922;9.444;2023-03-04T08:55:50;27.23;;;17.23;;
7517;SDS011;3800;48.922;9.444;2023-03-04T08:58:18;24.93;;;16.93;;
7517;SDS011;3800;48.922;9.444;2023-03-04T09:00:47;29.37;;;17.97;;
7517;SDS011;3800;48.922;9.444;2023-03-04T09:03:15;30.37;;;17.17;;
7517;SDS011;3800;48.922;9.444;2023-03-04T09:05:43;29.73;;;18.13;;
7517;SDS011;3800;48.922;9.444;2023-03-04T09:08:10;30.87;;;19.77;;
7517;SDS011;3800;48.922;9.444;2023-03-04T09:10:38;32.20;;;18.57;;
7517;SDS011;3800;48.922;9.444;2023-03-04T09:13:06;29.63;;;18.53;;
7517;SDS011;3800;48.922;9.444;2023-03-04T09:15:34;26.47;;;17.93;;
7517;SDS011;3800;48.922;9.444;2023-03-04T09:18:04;30.83;;;19.13;;
7517;SDS011;3800;48.922;9.444;2023-03-04T09:20:32;32.17;;;19.23;;
7517;SDS011;3800;48.922;9.444;2023-03-04T09:22:59;33.37;;;20.40;;
7517;SDS011;3800;48.922;9.444;2023-03-04T09:25:27;30.43;;;20.73;;
7517;SDS011;3800;48.922;9.444;2023-03-04T09:27:56;34.23;;;20.90;;
7517;SDS011;3800;48.922;9.444;2023-03-04T09:30:23;35.13;;;21.17;;
7517;SDS011;3800;48.922;9.444;2023-03-04T09:32:51;31.97;;;21.03;;
7517;SDS011;3800;48.922;9.444;2023-03-04T09:35:19;29.67;;;19.90;;
7517;SDS011;3800;48.922;9.444;2023-03-04T09:37:48;36.30;;;22.70;;
7517;SDS011;3800;48.922;9.444;2023-03-04T09:40:17;34.57;;;21.77;;
7517;SDS011;3800;48.922;9.444;2023-03-04T09:42:49;33.00;;;20.67;;
7517;SDS011;3800;48.922;9.444;2023-03-04T09:45:19;30.47;;;20.07;;
7517;SDS011;3800;48.922;9.444;2023-03-04T09:47:45;30.67;;;20.37;;
7517;SDS011;3800;48.922;9.444;2023-03-04T09:50:12;34.47;;;21.10;;
7517;SDS011;3800;48.922;9.444;2023-03-04T09:52:50;29.77;;;20.33;;
7517;SDS011;3800;48.922;9.444;2023-03-04T10:00:44;33.60;;;21.13;;
7517;SDS011;3800;48.922;9.444;2023-03-04T10:03:15;36.67;;;21.03;;
7517;SDS011;3800;48.922;9.444;2023-03-04T10:05:50;31.70;;;20.30;;
7517;SDS011;3800;48.922;9.444;2023-03-04T10:08:30;32.20;;;21.47;;
7517;SDS011;3800;48.922;9.444;2023-03-04T10:10:58;33.33;;;20.47;;
7517;SDS011;3800;48.922;9.444;2023-03-04T10:13:30;34.07;;;22.50;;
7517;SDS011;3800;48.922;9.444;2023-03-04T10:15:56;30.10;;;19.63;;
7517;SDS011;3800;48.922;9.444;2023-03-04T10:18:29;27.00;;;19.43;;
7517;SDS011;3800;48.922;9.444;2023-03-04T10:20:57;33.17;;;20.33;;
7517;SDS011;3800;48.922;9.444;2023-03-04T10:23:26;30.47;;;19.97;;
7517;SDS011;3800;48.922;9.444;2023-03-04T10:25:54;34.87;;;19.77;;
7517;SDS011;3800;48.922;9.444;2023-03-04T10:28:23;27.97;;;19.37;;
7517;SDS011;3800;48.922;9.444;2023-03-04T10:30:54;33.40;;;19.43;;
7517;SDS011;3800;48.922;9.444;2023-03-04T10:33:35;31.57;;;19.67;;
7517;SDS011;3800;48.922;9.444;2023-03-04T10:36:05;31.23;;;20.53;;
7517;SDS011;3800;48.922;9.444;2023-03-04T10:38:47;31.10;;;20.00;;
7517;SDS011;3800;48.922;9.444;2023-03-04T10:41:18;28.30;;;20.07;;
7517;SDS011;3800;48.922;9.444;2023-03-04T10:43:46;26.53;;;18.10;;
7517;SDS011;3800;48.922;9.444;2023-03-04T10:46:12;27.87;;;18.47;;
7517;SDS011;3800;48.922;9.444;2023-03-04T10:48:41;28.37;;;19.00;;
7517;SDS011;3800;48.922;9.444;2023-03-04T10:51:10;27.03;;;18.80;;
7517;SDS011;3800;48.922;9.444;2023-03-04T10:53:38;25.77;;;18.30;;
7517;SDS011;3800;48.922;9.444;2023-03-04T10:56:28;28.13;;;18.33;;
7517;SDS011;3800;48.922;9.444;2023-03-04T10:58:49;26.73;;;19.10;;
7517;SDS011;3800;48.922;9.444;2023-03-04T11:01:17;26.47;;;19.13;;
7517;SDS011;3800;48.922;9.444;2023-03-04T11:03:46;30.40;;;19.73;;
7517;SDS011;3800;48.922;9.444;2023-03-04T11:06:18;28.70;;;19.60;;
7517;SDS011;3800;48.922;9.444;2023-03-04T11:08:43;29.70;;;19.90;;
7517;SDS011;3800;48.922;9.444;2023-03-04T11:14:01;30.23;;;19.90;;
7517;SDS011;3800;48.922;9.444;2023-03-04T11:16:29;27.93;;;20.37;;
7517;SDS011;3800;48.922;9.444;2023-03-04T11:18:58;30.07;;;19.67;;
7517;SDS011;3800;48.922;9.444;2023-03-04T11:21:26;29.03;;;19.47;;
7517;SDS011;3800;48.922;9.444;2023-03-04T11:23:56;30.73;;;20.00;;
7517;SDS011;3800;48.922;9.444;2023-03-04T11:26:29;29.80;;;19.90;;
7517;SDS011;3800;48.922;9.444;2023-03-04T11:29:04;30.40;;;19.57;;
7517;SDS011;3800;48.922;9.444;2023-03-04T11:31:37;27.50;;;18.73;;
7517;SDS011;3800;48.922;9.444;2023-03-04T11:34:07;30.50;;;20.03;;
7517;SDS011;3800;48.922;9.444;2023-03-04T11:36:34;30.47;;;19.20;;
7517;SDS011;3800;48.922;9.444;2023-03-04T11:39:02;28.53;;;19.10;;
7517;SDS011;3800;48.922;9.444;2023-03-04T11:41:32;29.10;;;19.60;;
7517;SDS011;3800;48.922;9.444;2023-03-04T11:44:01;28.77;;;18.90;;
7517;SDS011;3800;48.922;9.444;2023-03-04T11:46:38;28.80;;;19.90;;
7517;SDS011;3800;48.922;9.444;2023-03-04T11:51:52;28.50;;;19.83;;
7517;SDS011;3800;48.922;9.444;2023-03-04T11:57:17;29.83;;;19.23;;
7517;SDS011;3800;48.922;9.444;2023-03-04T11:59:45;27.10;;;19.97;;
7517;SDS011;3800;48.922;9.444;2023-03-04T12:02:17;28.30;;;19.10;;
7517;SDS011;3800;48.922;9.444;2023-03-04T12:04:55;28.00;;;20.00;;
7517;SDS011;3800;48.922;9.444;2023-03-04T12:07:39;27.93;;;20.20;;
7517;SDS011;3800;48.922;9.444;2023-03-04T12:10:27;27.30;;;20.03;;
7517;SDS011;3800;48.922;9.444;2023-03-04T12:13:15;28.50;;;19.83;;
7517;SDS011;3800;48.922;9.444;2023-03-04T12:15:43;32.80;;;20.43;;
7517;SDS011;3800;48.922;9.444;2023-03-04T12:20:52;26.93;;;19.50;;
7517;SDS011;3800;48.922;9.444;2023-03-04T12:23:22;29.83;;;19.67;;
7517;SDS011;3800;48.922;9.444;2023-03-04T12:26:06;31.33;;;20.50;;
7517;SDS011;3800;48.922;9.444;2023-03-04T12:28:39;29.47;;;20.13;;
7517;SDS011;3800;48.922;9.444;2023-03-04T12:31:29;29.47;;;20.73;;
7517;SDS011;3800;48.922;9.444;2023-03-04T12:34:07;30.60;;;21.47;;
7517;SDS011;3800;48.922;9.444;2023-03-04T12:39:14;31.70;;;21.50;;
7517;SDS011;3800;48.922;9.444;2023-03-04T12:41:50;31.80;;;20.87;;
7517;SDS011;3800;48.922;9.444;2023-03-04T12:44:20;32.30;;;21.10;;
7517;SDS011;3800;48.922;9.444;2023-03-04T12:46:59;31.10;;;21.77;;
7517;SDS011;3800;48.922;9.444;2023-03-04T12:49:32;35.30;;;23.23;;
7517;SDS011;3800;48.922;9.444;2023-03-04T12:52:05;35.20;;;23.60;;
7517;SDS011;3800;48.922;9.444;2023-03-04T12:54:45;39.03;;;24.90;;
7517;SDS011;3800;48.922;9.444;2023-03-04T12:57:13;36.37;;;24.83;;
7517;SDS011;3800;48.922;9.444;2023-03-04T12:59:44;36.37;;;23.63;;
7517;SDS011;3800;48.922;9.444;2023-03-04T13:02:22;36.63;;;24.77;;
7517;SDS011;3800;48.922;9.444;2023-03-04T13:04:51;39.27;;;25.23;;
7517;SDS011;3800;48.922;9.444;2023-03-04T13:07:21;35.87;;;24.27;;
7517;SDS011;3800;48.922;9.444;2023-03-04T13:09:51;39.03;;;26.23;;
7517;SDS011;3800;48.922;9.444;2023-03-04T13:12:21;43.30;;;26.87;;
7517;SDS011;3800;48.922;9.444;2023-03-04T13:17:35;36.23;;;23.90;;
7517;SDS011;3800;48.922;9.444;2023-03-04T13:22:43;39.83;;;25.10;;
7517;SDS011;3800;48.922;9.444;2023-03-04T13:27:49;34.57;;;25.57;;
7517;SDS011;3800;48.922;9.444;2023-03-04T13:32:56;42.97;;;25.70;;
7517;SDS011;3800;48.922;9.444;2023-03-04T13:38:12;40.33;;;25.57;;
7517;SDS011;3800;48.922;9.444;2023-03-04T13:40:35;37.33;;;25.47;;
7517;SDS011;3800;48.922;9.444;2023-03-04T13:45:40;40.27;;;25.17;;
7517;SDS011;3800;48.922;9.444;2023-03-04T13:48:22;36.43;;;23.90;;
7517;SDS011;3800;48.922;9.444;2023-03-04T13:50:44;40.97;;;24.07;;
7517;SDS011;3800;48.922;9.444;2023-03-04T13:53:18;38.60;;;24.13;;
7517;SDS011;3800;48.922;9.444;2023-03-04T13:55:59;32.90;;;23.50;;
7517;SDS011;3800;48.922;9.444;2023-03-04T13:58:17;35.03;;;23.97;;
7517;SDS011;3800;48.922;9.444;2023-03-04T14:00:47;39.83;;;25.40;;
7517;SDS011;3800;48.922;9.444;2023-03-04T14:03:17;38.93;;;25.17;;
7517;SDS011;3800;48.922;9.444;2023-03-04T14:05:41;40.27;;;26.17;;
7517;SDS011;3800;48.922;9.444;2023-03-04T14:10:53;34.47;;;23.07;;
7517;SDS011;3800;48.922;9.444;2023-03-04T14:13:21;37.70;;;24.93;;
7517;SDS011;3800;48.922;9.444;2023-03-04T14:15:53;33.33;;;23.00;;
7517;SDS011;3800;48.922;9.444;2023-03-04T14:18:20;34.83;;;23.80;;
7517;SDS011;3800;48.922;9.444;2023-03-04T14:20:48;39.93;;;27.43;;
7517;SDS011;3800;48.922;9.444;2023-03-04T14:23:23;36.40;;;24.70;;
7517;SDS011;3800;48.922;9.444;2023-03-04T14:25:51;38.83;;;24.93;;
7517;SDS011;3800;48.922;9.444;2023-03-04T14:28:19;32.23;;;21.50;;
7517;SDS011;3800;48.922;9.444;2023-03-04T14:30:50;36.93;;;23.47;;
7517;SDS011;3800;48.922;9.444;2023-03-04T14:33:19;34.77;;;23.17;;
7517;SDS011;3800;48.922;9.444;2023-03-04T14:35:47;36.83;;;21.57;;
7517;SDS011;3800;48.922;9.444;2023-03-04T14:38:20;31.90;;;21.67;;
7517;SDS011;3800;48.922;9.444;2023-03-04T14:40:52;33.70;;;22.17;;
7517;SDS011;3800;48.922;9.444;2023-03-04T14:43:20;31.50;;;22.20;;
7517;SDS011;3800;48.922;9.444;2023-03-04T14:45:49;31.07;;;22.00;;
7517;SDS011;3800;48.922;9.444;2023-03-04T14:48:20;33.17;;;22.43;;
7517;SDS011;3800;48.922;9.444;2023-03-04T14:50:53;33.50;;;22.73;;
7517;SDS011;3800;48.922;9.444;2023-03-04T14:53:22;33.17;;;22.17;;
7517;SDS011;3800;48.922;9.444;2023-03-04T14:55:54;31.80;;;21.73;;
7517;SDS011;3800;48.922;9.444;2023-03-04T14:58:24;30.77;;;20.77;;
7517;SDS011;3800;48.922;9.444;2023-03-04T15:03:32;29.50;;;20.93;;
7517;SDS011;3800;48.922;9.444;2023-03-04T15:06:07;31.53;;;21.43;;
7517;SDS011;3800;48.922;9.444;2023-03-04T15:08:40;34.47;;;22.90;;
7517;SDS011;3800;48.922;9.444;2023-03-04T15:11:12;33.50;;;22.30;;
7517;SDS011;3800;48.922;9.444;2023-03-04T15:13:39;32.13;;;21.67;;
7517;SDS011;3800;48.922;9.444;2023-03-04T15:16:06;28.53;;;21.90;;
7517;SDS011;3800;48.922;9.444;2023-03-04T15:18:34;32.70;;;21.90;;
7517;SDS011;3800;48.922;9.444;2023-03-04T15:21:05;29.50;;;21.37;;
7517;SDS011;3800;48.922;9.444;2023-03-04T15:23:32;31.10;;;21.23;;
7517;SDS011;3800;48.922;9.444;2023-03-04T15:26:02;32.40;;;22.47;;
7517;SDS011;3800;48.922;9.444;2023-03-04T15:28:30;31.20;;;21.60;;
7517;SDS011;3800;48.922;9.444;2023-03-04T15:30:56;31.33;;;21.23;;
7517;SDS011;3800;48.922;9.444;2023-03-04T15:33:24;31.67;;;22.27;;
7517;SDS011;3800;48.922;9.444;2023-03-04T15:35:53;33.70;;;22.93;;
7517;SDS011;3800;48.922;9.444;2023-03-04T15:38:20;29.73;;;20.83;;
7517;SDS011;3800;48.922;9.444;2023-03-04T15:40:47;30.90;;;21.50;;